createdAt,value
2019-03-25T00:00:21.933Z,305.86
2019-03-25T00:01:21.930Z,305.57
2019-03-25T00:02:21.914Z,311.30
2019-03-25T00:03:21.905Z,305.73
2019-03-25T00:04:21.890Z,311.51
2019-03-25T00:05:21.864Z,305.40
2019-03-25T00:06:21.878Z,311.50
2019-03-25T00:07:21.853Z,311.29
2019-03-25T00:08:21.844Z,311.31
2019-03-25T00:09:21.810Z,311.41
2019-03-25T00:10:21.809Z,311.26
2019-03-25T00:11:21.838Z,311.78
2019-03-25T00:12:21.803Z,311.19
2019-03-25T00:13:21.788Z,311.82
2019-03-25T00:14:21.780Z,311.57
2019-03-25T00:15:21.768Z,311.54
2019-03-25T00:16:21.750Z,311.38
2019-03-25T00:17:21.753Z,311.63
2019-03-25T00:18:21.734Z,311.58
2019-03-25T00:19:21.718Z,305.54
2019-03-25T00:20:21.711Z,312.20
2019-03-25T00:21:21.698Z,305.98
2019-03-25T00:22:21.696Z,311.77
2019-03-25T00:23:21.674Z,305.79
2019-03-25T00:24:21.667Z,312.31
2019-03-25T00:25:21.656Z,306.49
2019-03-25T00:26:21.638Z,312.10
2019-03-25T00:27:21.639Z,306.53
2019-03-25T00:28:21.610Z,311.79
2019-03-25T00:29:21.615Z,312.15
2019-03-25T00:30:21.599Z,312.03
2019-03-25T00:31:21.580Z,305.75
2019-03-25T00:32:21.611Z,311.99
2019-03-25T00:33:21.568Z,306.49
2019-03-25T00:34:21.555Z,312.23
2019-03-25T00:35:21.544Z,306.33
2019-03-25T00:36:21.532Z,312.28
2019-03-25T00:37:21.542Z,312.48
2019-03-25T00:38:21.501Z,312.66
2019-03-25T00:39:21.496Z,306.56
2019-03-25T00:40:21.492Z,312.37
2019-03-25T00:41:21.471Z,311.87
2019-03-25T00:42:21.472Z,312.41
2019-03-25T00:43:21.446Z,305.80
2019-03-25T00:44:21.435Z,312.13
2019-03-25T00:45:21.429Z,312.30
2019-03-25T00:46:21.425Z,311.74
2019-03-25T00:47:21.407Z,306.02
2019-03-25T00:48:21.411Z,311.44
2019-03-25T00:49:21.388Z,305.41
2019-03-25T00:50:21.363Z,305.19
2019-03-25T00:51:21.360Z,306.18
2019-03-25T00:52:21.373Z,311.49
2019-03-25T00:53:21.342Z,305.60
2019-03-25T00:54:21.335Z,311.33
2019-03-25T00:55:21.323Z,311.43
2019-03-25T00:56:21.304Z,311.67
2019-03-25T00:57:21.313Z,310.96
2019-03-25T00:58:21.296Z,311.75
2019-03-25T00:59:21.298Z,311.33
2019-03-25T01:00:21.268Z,311.44
2019-03-25T01:01:21.248Z,311.29
2019-03-25T01:02:21.302Z,311.51
2019-03-25T01:03:21.233Z,311.34
2019-03-25T01:04:21.230Z,311.26
2019-03-25T01:05:21.196Z,310.97
2019-03-25T01:06:21.218Z,311.27
2019-03-25T01:07:21.180Z,311.44
2019-03-25T01:08:21.187Z,310.85
2019-03-25T01:09:21.181Z,311.22
2019-03-25T01:10:21.173Z,311.21
2019-03-25T01:11:21.140Z,311.28
2019-03-25T01:12:21.140Z,311.21
2019-03-25T01:13:21.132Z,311.75
2019-03-25T01:14:21.122Z,311.59
2019-03-25T01:15:21.096Z,311.60
2019-03-25T01:16:21.102Z,311.71
2019-03-25T01:17:21.066Z,311.62
2019-03-25T01:18:21.092Z,311.85
2019-03-25T01:19:21.048Z,311.65
2019-03-25T01:20:21.091Z,312.07
2019-03-25T01:21:21.031Z,311.71
2019-03-25T01:22:21.022Z,312.17
2019-03-25T01:23:21.018Z,311.95
2019-03-25T01:24:21.011Z,311.92
2019-03-25T01:25:20.999Z,311.93
2019-03-25T01:26:20.982Z,311.91
2019-03-25T01:27:20.977Z,312.04
2019-03-25T01:28:20.977Z,311.92
2019-03-25T01:29:20.928Z,312.54
2019-03-25T01:30:20.927Z,313.01
2019-03-25T01:31:20.935Z,312.39
2019-03-25T01:32:20.907Z,312.51
2019-03-25T01:33:20.909Z,312.23
2019-03-25T01:34:20.896Z,312.35
2019-03-25T01:35:20.879Z,312.21
2019-03-25T01:36:20.870Z,312.44
2019-03-25T01:37:20.865Z,312.37
2019-03-25T01:38:20.877Z,312.02
2019-03-25T01:39:20.841Z,312.49
2019-03-25T01:40:20.815Z,312.22
2019-03-25T01:41:20.797Z,312.57
2019-03-25T01:42:20.794Z,312.70
2019-03-25T01:43:20.782Z,313.32
2019-03-25T01:44:20.788Z,312.92
2019-03-25T01:45:20.763Z,312.69
2019-03-25T01:46:20.743Z,313.05
2019-03-25T01:47:20.739Z,312.54
2019-03-25T01:48:20.742Z,312.75
2019-03-25T01:49:20.747Z,312.96
2019-03-25T01:50:20.711Z,312.72
2019-03-25T01:51:20.697Z,312.95
2019-03-25T01:52:20.683Z,313.45
2019-03-25T01:53:20.673Z,313.08
2019-03-25T01:54:20.673Z,312.73
2019-03-25T01:55:20.664Z,313.06
2019-03-25T01:56:20.704Z,313.01
2019-03-25T01:57:20.626Z,312.97
2019-03-25T01:58:20.627Z,312.80
2019-03-25T01:59:20.636Z,312.69
2019-03-25T02:00:20.602Z,312.74
2019-03-25T02:01:20.603Z,313.15
2019-03-25T02:02:20.581Z,312.89
2019-03-25T02:03:20.554Z,313.00
2019-03-25T02:04:20.575Z,313.20
2019-03-25T02:05:20.531Z,312.92
2019-03-25T02:06:20.546Z,313.52
2019-03-25T02:07:20.525Z,312.74
2019-03-25T02:08:20.499Z,313.11
2019-03-25T02:09:20.506Z,313.38
2019-03-25T02:10:20.489Z,312.80
2019-03-25T02:11:22.337Z,312.61
2019-03-25T02:12:20.453Z,312.43
2019-03-25T02:13:20.443Z,312.73
2019-03-25T02:14:20.455Z,312.66
2019-03-25T02:15:20.430Z,312.37
2019-03-25T02:16:20.412Z,312.37
2019-03-25T02:17:20.417Z,312.50
2019-03-25T02:18:20.394Z,312.22
2019-03-25T02:19:20.425Z,312.28
2019-03-25T02:20:26.301Z,312.50
2019-03-25T02:21:21.372Z,312.16
2019-03-25T02:22:20.351Z,312.03
2019-03-25T02:23:20.369Z,312.27
2019-03-25T02:24:20.352Z,312.10
2019-03-25T02:25:25.277Z,312.12
2019-03-25T02:26:21.331Z,311.81
2019-03-25T02:27:20.304Z,312.08
2019-03-25T02:28:20.285Z,312.21
2019-03-25T02:29:20.301Z,312.23
2019-03-25T02:30:20.270Z,312.14
2019-03-25T02:31:20.259Z,312.17
2019-03-25T02:32:20.244Z,312.42
2019-03-25T02:33:20.223Z,312.26
2019-03-25T02:34:20.242Z,312.02
2019-03-25T02:35:20.209Z,312.03
2019-03-25T02:36:20.210Z,311.89
2019-03-25T02:37:20.193Z,312.02
2019-03-25T02:38:20.181Z,311.56
2019-03-25T02:39:20.195Z,311.72
2019-03-25T02:40:20.148Z,311.18
2019-03-25T02:41:20.142Z,311.78
2019-03-25T02:42:20.159Z,311.79
2019-03-25T02:43:20.122Z,311.62
2019-03-25T02:44:20.126Z,312.21
2019-03-25T02:45:20.115Z,311.68
2019-03-25T02:46:20.092Z,311.42
2019-03-25T02:47:20.079Z,311.50
2019-03-25T02:48:20.068Z,311.51
2019-03-25T02:49:20.086Z,311.69
2019-03-25T02:50:20.047Z,311.80
2019-03-25T02:51:20.044Z,311.79
2019-03-25T02:52:20.022Z,311.24
2019-03-25T02:53:20.026Z,310.96
2019-03-25T02:54:20.038Z,311.43
2019-03-25T02:55:19.980Z,311.48
2019-03-25T02:56:19.974Z,311.30
2019-03-25T02:57:19.961Z,311.31
2019-03-25T02:58:19.967Z,311.46
2019-03-25T02:59:19.983Z,312.20
2019-03-25T03:00:19.936Z,311.61
2019-03-25T03:01:19.950Z,311.92
2019-03-25T03:02:19.959Z,311.54
2019-03-25T03:03:19.916Z,311.92
2019-03-25T03:04:19.908Z,311.89
2019-03-25T03:05:19.879Z,311.56
2019-03-25T03:06:19.882Z,312.12
2019-03-25T03:07:19.858Z,311.75
2019-03-25T03:08:19.854Z,311.80
2019-03-25T03:09:19.857Z,311.29
2019-03-25T03:10:19.824Z,312.06
2019-03-25T03:11:19.806Z,311.66
2019-03-25T03:12:19.796Z,311.80
2019-03-25T03:13:19.816Z,311.25
2019-03-25T03:14:19.783Z,311.87
2019-03-25T03:15:19.788Z,311.75
2019-03-25T03:16:19.756Z,311.65
2019-03-25T03:17:19.740Z,311.47
2019-03-25T03:18:19.735Z,311.85
2019-03-25T03:19:19.728Z,311.22
2019-03-25T03:20:19.733Z,311.25
2019-03-25T03:21:19.698Z,311.76
2019-03-25T03:22:19.691Z,311.55
2019-03-25T03:23:19.679Z,311.99
2019-03-25T03:24:19.779Z,312.04
2019-03-25T03:25:19.669Z,311.52
2019-03-25T03:26:19.633Z,311.60
2019-03-25T03:27:19.653Z,311.23
2019-03-25T03:28:19.632Z,311.62
2019-03-25T03:29:19.608Z,311.67
2019-03-25T03:30:19.625Z,312.03
2019-03-25T03:31:19.607Z,311.50
2019-03-25T03:32:19.735Z,311.94
2019-03-25T03:33:19.592Z,312.05
2019-03-25T03:34:19.624Z,311.39
2019-03-25T03:35:19.588Z,311.76
2019-03-25T03:36:19.568Z,311.30
2019-03-25T03:37:19.545Z,311.57
2019-03-25T03:38:19.598Z,311.75
2019-03-25T03:39:19.574Z,311.53
2019-03-25T03:40:19.548Z,311.34
2019-03-25T03:41:19.510Z,311.57
2019-03-25T03:42:19.623Z,311.63
2019-03-25T03:43:19.454Z,311.39
2019-03-25T03:44:19.444Z,311.23
2019-03-25T03:45:19.514Z,311.54
2019-03-25T03:46:19.427Z,311.53
2019-03-25T03:47:19.423Z,311.50
2019-03-25T03:48:19.396Z,311.55
2019-03-25T03:49:19.397Z,311.70
2019-03-25T03:50:19.396Z,311.79
2019-03-25T03:51:19.366Z,312.26
2019-03-25T03:52:19.361Z,311.94
2019-03-25T03:53:19.333Z,311.47
2019-03-25T03:54:19.331Z,311.91
2019-03-25T03:55:19.393Z,311.96
2019-03-25T03:56:19.314Z,311.47
2019-03-25T03:57:19.303Z,311.70
2019-03-25T03:58:19.308Z,311.84
2019-03-25T03:59:19.270Z,311.30
2019-03-25T04:00:19.292Z,311.74
2019-03-25T04:01:19.253Z,311.77
2019-03-25T04:02:19.244Z,311.00
2019-03-25T04:03:19.233Z,311.95
2019-03-25T04:04:19.250Z,311.70
2019-03-25T04:05:19.224Z,311.29
2019-03-25T04:06:19.224Z,312.15
2019-03-25T04:07:19.187Z,311.78
2019-03-25T04:08:19.185Z,312.08
2019-03-25T04:09:19.165Z,311.64
2019-03-25T04:10:19.182Z,311.67
2019-03-25T04:11:19.134Z,312.01
2019-03-25T04:12:19.144Z,311.80
2019-03-25T04:13:19.121Z,311.60
2019-03-25T04:14:19.118Z,311.60
2019-03-25T04:15:19.113Z,311.83
2019-03-25T04:16:19.100Z,312.13
2019-03-25T04:17:19.077Z,311.94
2019-03-25T04:18:19.071Z,312.08
2019-03-25T04:19:19.050Z,312.58
2019-03-25T04:20:19.044Z,312.29
2019-03-25T04:21:19.050Z,311.65
2019-03-25T04:22:19.044Z,311.75
2019-03-25T04:23:19.011Z,311.63
2019-03-25T04:24:18.996Z,311.93
2019-03-25T04:25:18.978Z,311.28
2019-03-25T04:26:28.540Z,311.84
2019-03-25T04:27:19.961Z,312.57
2019-03-25T04:28:18.948Z,312.22
2019-03-25T04:29:18.958Z,311.63
2019-03-25T04:30:18.931Z,311.94
2019-03-25T04:31:18.940Z,312.21
2019-03-25T04:32:18.901Z,311.90
2019-03-25T04:33:18.897Z,312.14
2019-03-25T04:34:18.879Z,312.29
2019-03-25T04:35:18.879Z,312.08
2019-03-25T04:36:18.886Z,311.82
2019-03-25T04:37:18.857Z,311.49
2019-03-25T04:38:18.848Z,311.31
2019-03-25T04:39:18.824Z,311.99
2019-03-25T04:40:18.819Z,311.48
2019-03-25T04:41:18.830Z,312.23
2019-03-25T04:42:18.817Z,312.30
2019-03-25T04:43:18.798Z,311.81
2019-03-25T04:44:18.808Z,311.69
2019-03-25T04:45:18.759Z,311.83
2019-03-25T04:46:18.775Z,311.78
2019-03-25T04:47:18.754Z,312.39
2019-03-25T04:48:18.743Z,312.05
2019-03-25T04:49:18.748Z,311.36
2019-03-25T04:50:18.715Z,311.66
2019-03-25T04:51:18.720Z,312.01
2019-03-25T04:52:18.700Z,312.11
2019-03-25T04:53:18.675Z,311.77
2019-03-25T04:54:18.675Z,311.30
2019-03-25T04:55:18.667Z,311.21
2019-03-25T04:56:18.652Z,311.42
2019-03-25T04:57:18.657Z,311.45
2019-03-25T04:58:18.618Z,312.05
2019-03-25T04:59:18.605Z,312.11
2019-03-25T05:00:18.597Z,311.86
2019-03-25T05:01:18.592Z,312.47
2019-03-25T05:02:18.611Z,311.81
2019-03-25T05:03:18.578Z,312.50
2019-03-25T05:04:18.570Z,311.90
2019-03-25T05:05:18.549Z,312.10
2019-03-25T05:06:18.543Z,311.71
2019-03-25T05:07:18.540Z,311.84
2019-03-25T05:08:18.514Z,312.21
2019-03-25T05:09:18.494Z,312.28
2019-03-25T05:10:18.482Z,311.95
2019-03-25T05:11:30.073Z,312.07
2019-03-25T05:12:19.485Z,311.62
2019-03-25T05:13:18.466Z,311.86
2019-03-25T05:14:18.458Z,311.78
2019-03-25T05:15:18.436Z,311.81
2019-03-25T05:16:18.696Z,312.09
2019-03-25T05:17:18.437Z,311.42
2019-03-25T05:18:18.421Z,311.03
2019-03-25T05:19:18.384Z,311.42
2019-03-25T05:20:18.384Z,311.21
2019-03-25T05:21:18.374Z,311.74
2019-03-25T05:22:18.388Z,311.62
2019-03-25T05:23:18.336Z,311.85
2019-03-25T05:24:18.332Z,312.20
2019-03-25T05:25:18.334Z,312.35
2019-03-25T05:26:18.323Z,312.51
2019-03-25T05:27:18.337Z,312.07
2019-03-25T05:28:18.291Z,312.73
2019-03-25T05:29:18.286Z,312.23
2019-03-25T05:30:18.266Z,312.61
2019-03-25T05:31:18.268Z,312.74
2019-03-25T05:32:18.266Z,312.75
2019-03-25T05:33:18.242Z,312.13
2019-03-25T05:34:18.229Z,313.09
2019-03-25T05:35:18.214Z,312.40
2019-03-25T05:36:18.200Z,312.72
2019-03-25T05:37:18.207Z,313.08
2019-03-25T05:38:18.178Z,312.21
2019-03-25T05:39:18.185Z,312.07
2019-03-25T05:40:18.161Z,312.11
2019-03-25T05:41:18.139Z,312.86
2019-03-25T05:42:18.146Z,312.32
2019-03-25T05:43:18.119Z,312.10
2019-03-25T05:44:18.111Z,313.04
2019-03-25T05:45:18.118Z,312.57
2019-03-25T05:46:18.100Z,312.61
2019-03-25T05:47:18.109Z,313.24
2019-03-25T05:48:18.085Z,313.17
2019-03-25T05:49:18.056Z,313.00
2019-03-25T05:50:18.048Z,312.71
2019-03-25T05:51:18.049Z,312.65
2019-03-25T05:52:18.029Z,312.48
2019-03-25T05:53:18.031Z,312.96
2019-03-25T05:54:18.015Z,312.48
2019-03-25T05:55:17.986Z,312.40
2019-03-25T05:56:17.979Z,312.82
2019-03-25T05:57:17.967Z,313.16
2019-03-25T05:58:17.994Z,313.00
2019-03-25T05:59:17.953Z,312.98
2019-03-25T06:00:17.931Z,313.31
2019-03-25T06:01:17.951Z,313.35
2019-03-25T06:02:17.934Z,314.88
2019-03-25T06:03:17.915Z,313.28
2019-03-25T06:04:17.893Z,314.18
2019-03-25T06:05:17.882Z,313.71
2019-03-25T06:06:17.885Z,313.36
2019-03-25T06:07:17.853Z,313.19
2019-03-25T06:08:17.877Z,313.58
2019-03-25T06:09:17.836Z,314.70
2019-03-25T06:10:17.827Z,313.93
2019-03-25T06:11:17.832Z,313.14
2019-03-25T06:12:17.792Z,313.13
2019-03-25T06:13:17.806Z,313.78
2019-03-25T06:14:17.786Z,312.62
2019-03-25T06:15:17.775Z,312.98
2019-03-25T06:16:17.767Z,312.72
2019-03-25T06:17:17.745Z,313.54
2019-03-25T06:18:20.310Z,313.60
2019-03-25T06:19:17.719Z,313.37
2019-03-25T06:20:17.707Z,313.88
2019-03-25T06:21:17.697Z,313.87
2019-03-25T06:22:17.702Z,313.80
2019-03-25T06:23:17.688Z,313.96
2019-03-25T06:24:17.663Z,313.73
2019-03-25T06:25:17.662Z,314.32
2019-03-25T06:26:17.649Z,313.28
2019-03-25T06:27:17.642Z,313.88
2019-03-25T06:28:17.654Z,313.06
2019-03-25T06:29:17.620Z,313.65
2019-03-25T06:30:17.603Z,313.13
2019-03-25T06:31:17.598Z,313.42
2019-03-25T06:32:17.593Z,313.38
2019-03-25T06:33:17.588Z,314.30
2019-03-25T06:34:17.578Z,313.96
2019-03-25T06:35:17.542Z,313.92
2019-03-25T06:36:17.539Z,314.01
2019-03-25T06:37:17.520Z,313.94
2019-03-25T06:38:17.540Z,313.56
2019-03-25T06:39:17.514Z,314.05
2019-03-25T06:40:17.523Z,314.06
2019-03-25T06:41:17.476Z,314.10
2019-03-25T06:42:17.483Z,313.92
2019-03-25T06:43:17.472Z,313.46
2019-03-25T06:44:17.453Z,313.42
2019-03-25T06:45:17.455Z,313.53
2019-03-25T06:46:17.437Z,313.50
2019-03-25T06:47:17.417Z,313.74
2019-03-25T06:48:17.414Z,313.38
2019-03-25T06:49:17.444Z,313.89
2019-03-25T06:50:17.388Z,314.10
2019-03-25T06:51:17.372Z,314.44
2019-03-25T06:52:17.357Z,314.02
2019-03-25T06:53:17.375Z,314.58
2019-03-25T06:54:17.336Z,314.40
2019-03-25T06:55:17.397Z,314.74
2019-03-25T06:56:17.311Z,314.65
2019-03-25T06:57:25.403Z,314.42
2019-03-25T06:58:18.309Z,314.47
2019-03-25T06:59:17.281Z,314.51
2019-03-25T07:00:17.282Z,315.16
2019-03-25T07:01:17.258Z,316.27
2019-03-25T07:02:17.256Z,314.64
2019-03-25T07:03:17.266Z,314.59
2019-03-25T07:04:17.239Z,314.83
2019-03-25T07:05:17.206Z,314.64
2019-03-25T07:06:17.208Z,314.74
2019-03-25T07:07:17.197Z,315.37
2019-03-25T07:08:17.196Z,314.02
2019-03-25T07:09:18.707Z,314.74
2019-03-25T07:10:17.221Z,314.72
2019-03-25T07:11:17.147Z,314.86
2019-03-25T07:12:17.132Z,316.17
2019-03-25T07:13:17.126Z,316.84
2019-03-25T07:14:17.140Z,315.70
2019-03-25T07:15:17.093Z,315.94
2019-03-25T07:16:17.083Z,316.15
2019-03-25T07:17:17.077Z,318.89
2019-03-25T07:18:17.073Z,317.21
2019-03-25T07:19:17.087Z,315.98
2019-03-25T07:20:17.051Z,315.64
2019-03-25T07:21:17.030Z,315.46
2019-03-25T07:22:17.033Z,315.68
2019-03-25T07:23:17.082Z,315.48
2019-03-25T07:24:17.042Z,315.44
2019-03-25T07:25:17.069Z,315.21
2019-03-25T07:26:16.990Z,315.56
2019-03-25T07:27:16.960Z,315.00
2019-03-25T07:28:16.960Z,315.18
2019-03-25T07:29:16.943Z,315.08
2019-03-25T07:30:16.950Z,315.67
2019-03-25T07:31:16.917Z,315.43
2019-03-25T07:32:16.916Z,315.73
2019-03-25T07:33:16.894Z,315.33
2019-03-25T07:34:16.901Z,315.10
2019-03-25T07:35:16.882Z,314.86
2019-03-25T07:36:16.857Z,315.82
2019-03-25T07:37:16.850Z,315.24
2019-03-25T07:38:16.836Z,316.59
2019-03-25T07:39:16.837Z,315.98
2019-03-25T07:40:16.832Z,315.19
2019-03-25T07:41:17.209Z,315.57
2019-03-25T07:42:16.788Z,315.64
2019-03-25T07:43:16.806Z,315.31
2019-03-25T07:44:16.773Z,315.92
2019-03-25T07:45:16.773Z,315.79
2019-03-25T07:46:16.775Z,316.26
2019-03-25T07:47:16.742Z,315.06
2019-03-25T07:48:16.729Z,315.46
2019-03-25T07:49:16.735Z,315.37
2019-03-25T07:50:16.783Z,315.49
2019-03-25T07:51:16.685Z,315.54
2019-03-25T07:52:16.685Z,314.72
2019-03-25T07:53:16.695Z,314.81
2019-03-25T07:54:16.666Z,315.15
2019-03-25T07:55:16.674Z,315.17
2019-03-25T07:56:16.643Z,315.72
2019-03-25T07:57:16.642Z,314.74
2019-03-25T07:58:16.716Z,315.03
2019-03-25T07:59:17.547Z,314.69
2019-03-25T08:00:16.642Z,314.87
2019-03-25T08:01:16.578Z,315.13
2019-03-25T08:02:16.594Z,315.05
2019-03-25T08:03:16.576Z,316.48
2019-03-25T08:04:16.573Z,315.62
2019-03-25T08:05:16.559Z,315.24
2019-03-25T08:06:16.528Z,315.11
2019-03-25T08:07:16.533Z,315.07
2019-03-25T08:08:16.500Z,314.45
2019-03-25T08:09:16.495Z,314.02
2019-03-25T08:10:16.481Z,315.03
2019-03-25T08:11:16.506Z,314.88
2019-03-25T08:12:16.498Z,314.21
2019-03-25T08:13:16.532Z,314.58
2019-03-25T08:14:16.439Z,314.43
2019-03-25T08:15:16.434Z,314.42
2019-03-25T08:16:16.448Z,315.38
2019-03-25T08:17:16.435Z,315.23
2019-03-25T08:18:16.402Z,314.59
2019-03-25T08:19:16.375Z,313.89
2019-03-25T08:20:16.377Z,313.86
2019-03-25T08:21:16.374Z,314.32
2019-03-25T08:22:16.366Z,314.01
2019-03-25T08:23:16.383Z,314.45
2019-03-25T08:24:16.334Z,314.18
2019-03-25T08:25:16.314Z,314.08
2019-03-25T08:26:16.315Z,314.22
2019-03-25T08:27:16.296Z,314.37
2019-03-25T08:28:16.287Z,313.44
2019-03-25T08:29:16.278Z,314.36
2019-03-25T08:30:16.277Z,313.50
2019-03-25T08:31:16.275Z,313.95
2019-03-25T08:32:16.240Z,312.60
2019-03-25T08:33:16.226Z,312.74
2019-03-25T08:34:16.223Z,312.96
2019-03-25T08:35:16.216Z,313.15
2019-03-25T08:36:16.250Z,313.20
2019-03-25T08:37:16.210Z,312.61
2019-03-25T08:38:16.198Z,313.30
2019-03-25T08:39:16.168Z,313.15
2019-03-25T08:40:16.162Z,314.93
2019-03-25T08:41:16.163Z,313.21
2019-03-25T08:42:16.127Z,312.68
2019-03-25T08:43:16.135Z,313.10
2019-03-25T08:44:16.139Z,313.32
2019-03-25T08:45:16.106Z,313.19
2019-03-25T08:46:16.124Z,313.72
2019-03-25T08:47:16.079Z,313.30
2019-03-25T08:48:16.070Z,313.17
2019-03-25T08:49:16.050Z,312.96
2019-03-25T08:50:16.052Z,314.72
2019-03-25T08:51:16.046Z,313.70
2019-03-25T08:52:16.013Z,313.01
2019-03-25T08:53:16.013Z,313.72
2019-03-25T08:54:16.027Z,312.92
2019-03-25T08:55:15.997Z,314.58
2019-03-25T08:56:15.995Z,314.60
2019-03-25T08:57:15.971Z,312.71
2019-03-25T08:58:15.944Z,312.96
2019-03-25T08:59:15.955Z,312.82
2019-03-25T09:00:15.925Z,313.56
2019-03-25T09:01:15.931Z,313.16
2019-03-25T09:02:15.937Z,312.58
2019-03-25T09:03:15.922Z,312.91
2019-03-25T09:04:15.901Z,313.06
2019-03-25T09:05:15.881Z,313.42
2019-03-25T09:06:15.875Z,312.83
2019-03-25T09:07:15.844Z,313.19
2019-03-25T09:08:15.841Z,313.20
2019-03-25T09:09:15.845Z,312.92
2019-03-25T09:10:15.830Z,312.72
2019-03-25T09:11:15.839Z,312.21
2019-03-25T09:12:15.802Z,312.99
2019-03-25T09:13:15.783Z,311.86
2019-03-25T09:14:15.780Z,312.97
2019-03-25T09:15:15.786Z,313.00
2019-03-25T09:16:15.778Z,311.38
2019-03-25T09:17:15.738Z,311.85
2019-03-25T09:18:15.734Z,312.26
2019-03-25T09:19:15.725Z,311.95
2019-03-25T09:20:15.723Z,313.97
2019-03-25T09:21:15.712Z,313.10
2019-03-25T09:22:15.704Z,312.93
2019-03-25T09:23:15.676Z,312.91
2019-03-25T09:24:15.656Z,312.33
2019-03-25T09:25:15.652Z,312.91
2019-03-25T09:26:15.660Z,312.98
2019-03-25T09:27:15.625Z,312.21
2019-03-25T09:28:24.182Z,312.41
2019-03-25T09:29:16.604Z,312.18
2019-03-25T09:30:15.586Z,312.97
2019-03-25T09:31:15.615Z,312.88
2019-03-25T09:32:15.581Z,312.23
2019-03-25T09:33:15.570Z,312.17
2019-03-25T09:34:15.557Z,311.96
2019-03-25T09:35:15.537Z,312.43
2019-03-25T09:36:15.542Z,312.69
2019-03-25T09:37:15.572Z,312.44
2019-03-25T09:38:15.523Z,312.40
2019-03-25T09:39:15.501Z,312.29
2019-03-25T09:40:15.477Z,312.24
2019-03-25T09:41:15.505Z,313.17
2019-03-25T09:42:15.467Z,311.88
2019-03-25T09:43:15.450Z,311.96
2019-03-25T09:44:15.460Z,311.10
2019-03-25T09:45:15.437Z,311.55
2019-03-25T09:46:15.434Z,310.79
2019-03-25T09:47:15.410Z,311.50
2019-03-25T09:48:15.407Z,312.39
2019-03-25T09:49:15.383Z,311.65
2019-03-25T09:50:15.374Z,312.80
2019-03-25T09:51:15.369Z,312.44
2019-03-25T09:52:15.370Z,311.96
2019-03-25T09:53:15.351Z,310.79
2019-03-25T09:54:15.329Z,311.76
2019-03-25T09:55:16.587Z,311.47
2019-03-25T09:56:15.349Z,311.89
2019-03-25T09:57:15.306Z,312.47
2019-03-25T09:58:15.283Z,312.07
2019-03-25T09:59:15.283Z,311.84
2019-03-25T10:00:15.261Z,311.67
2019-03-25T10:01:15.257Z,312.96
2019-03-25T10:02:15.251Z,310.97
2019-03-25T10:03:15.233Z,311.20
2019-03-25T10:04:15.294Z,311.13
2019-03-25T10:05:15.204Z,311.97
2019-03-25T10:06:15.200Z,311.10
2019-03-25T10:07:15.210Z,312.08
2019-03-25T10:08:15.191Z,311.35
2019-03-25T10:09:15.171Z,310.85
2019-03-25T10:10:15.171Z,311.31
2019-03-25T10:11:15.135Z,311.87
2019-03-25T10:12:15.165Z,312.32
2019-03-25T10:13:15.129Z,313.45
2019-03-25T10:14:15.111Z,312.54
2019-03-25T10:15:15.110Z,312.69
2019-03-25T10:16:15.089Z,312.44
2019-03-25T10:17:15.085Z,312.81
2019-03-25T10:18:15.060Z,312.23
2019-03-25T10:19:15.050Z,312.23
2019-03-25T10:20:15.050Z,312.77
2019-03-25T10:21:15.033Z,313.20
2019-03-25T10:22:15.039Z,312.59
2019-03-25T10:23:15.018Z,311.86
2019-03-25T10:24:15.173Z,311.96
2019-03-25T10:25:14.988Z,312.57
2019-03-25T10:26:14.968Z,312.88
2019-03-25T10:27:14.994Z,312.48
2019-03-25T10:28:14.944Z,313.72
2019-03-25T10:29:14.946Z,312.15
2019-03-25T10:30:14.925Z,311.88
2019-03-25T10:31:17.205Z,310.26
2019-03-25T10:32:14.935Z,310.99
2019-03-25T10:33:14.886Z,311.61
2019-03-25T10:34:14.878Z,311.81
2019-03-25T10:35:14.877Z,312.94
2019-03-25T10:36:14.854Z,311.63
2019-03-25T10:37:14.874Z,312.03
2019-03-25T10:38:19.398Z,311.78
2019-03-25T10:39:15.842Z,313.52
2019-03-25T10:40:14.828Z,313.18
2019-03-25T10:41:14.812Z,315.45
2019-03-25T10:42:14.815Z,315.52
2019-03-25T10:43:14.808Z,314.27
2019-03-25T10:44:14.784Z,314.66
2019-03-25T10:45:14.770Z,313.65
2019-03-25T10:46:14.768Z,312.94
2019-03-25T10:47:14.768Z,314.31
2019-03-25T10:48:14.733Z,313.85
2019-03-25T10:49:16.200Z,312.92
2019-03-25T10:50:14.707Z,312.73
2019-03-25T10:51:14.706Z,312.42
2019-03-25T10:52:14.707Z,312.70
2019-03-25T10:53:14.675Z,312.75
2019-03-25T10:54:14.665Z,313.39
2019-03-25T10:55:14.646Z,314.45
2019-03-25T10:56:14.644Z,314.59
2019-03-25T10:57:14.663Z,314.87
2019-03-25T10:58:14.619Z,314.04
2019-03-25T10:59:14.611Z,314.47
2019-03-25T11:00:14.601Z,316.76
2019-03-25T11:01:14.588Z,315.61
2019-03-25T11:02:14.630Z,313.45
2019-03-25T11:03:14.566Z,312.98
2019-03-25T11:04:14.555Z,313.23
2019-03-25T11:05:14.543Z,312.96
2019-03-25T11:06:14.529Z,311.50
2019-03-25T11:07:14.557Z,311.84
2019-03-25T11:08:14.520Z,310.40
2019-03-25T11:09:14.513Z,312.52
2019-03-25T11:10:14.497Z,310.78
2019-03-25T11:11:14.479Z,310.17
2019-03-25T11:12:14.490Z,311.09
2019-03-25T11:13:14.448Z,310.28
2019-03-25T11:14:14.439Z,310.80
2019-03-25T11:15:14.440Z,311.39
2019-03-25T11:16:14.421Z,311.54
2019-03-25T11:17:14.445Z,310.70
2019-03-25T11:18:14.388Z,312.00
2019-03-25T11:19:14.401Z,312.28
2019-03-25T11:20:14.406Z,311.22
2019-03-25T11:21:14.364Z,311.22
2019-03-25T11:22:14.378Z,311.75
2019-03-25T11:23:14.342Z,311.20
2019-03-25T11:24:15.245Z,310.83
2019-03-25T11:25:14.311Z,312.68
2019-03-25T11:26:14.307Z,315.49
2019-03-25T11:27:14.323Z,314.04
2019-03-25T11:28:14.295Z,313.83
2019-03-25T11:29:14.282Z,312.42
2019-03-25T11:30:14.269Z,312.56
2019-03-25T11:31:14.262Z,309.19
2019-03-25T11:32:14.269Z,310.03
2019-03-25T11:33:14.242Z,310.16
2019-03-25T11:34:14.232Z,310.11
2019-03-25T11:35:14.215Z,309.23
2019-03-25T11:36:14.194Z,310.38
2019-03-25T11:37:14.210Z,310.35
2019-03-25T11:38:14.181Z,311.42
2019-03-25T11:39:14.162Z,311.70
2019-03-25T11:40:14.162Z,311.22
2019-03-25T11:41:14.143Z,311.22
2019-03-25T11:42:14.156Z,311.64
2019-03-25T11:43:14.120Z,310.28
2019-03-25T11:44:14.106Z,310.17
2019-03-25T11:45:14.122Z,310.50
2019-03-25T11:46:14.087Z,310.16
2019-03-25T11:47:14.108Z,310.39
2019-03-25T11:48:14.072Z,310.44
2019-03-25T11:49:14.046Z,309.74
2019-03-25T11:50:14.043Z,310.34
2019-03-25T11:51:14.025Z,310.90
2019-03-25T11:52:14.049Z,311.41
2019-03-25T11:53:14.008Z,311.39
2019-03-25T11:54:13.988Z,311.12
2019-03-25T11:55:13.980Z,311.50
2019-03-25T11:56:13.978Z,311.30
2019-03-25T11:57:13.969Z,311.92
2019-03-25T11:58:13.950Z,310.79
2019-03-25T11:59:18.677Z,310.55
2019-03-25T12:00:14.937Z,310.66
2019-03-25T12:01:13.919Z,311.33
2019-03-25T12:02:17.681Z,310.94
2019-03-25T12:03:13.892Z,311.84
2019-03-25T12:04:13.880Z,311.47
2019-03-25T12:05:13.878Z,311.56
2019-03-25T12:06:13.879Z,311.05
2019-03-25T12:07:13.880Z,313.43
2019-03-25T12:08:13.840Z,311.34
2019-03-25T12:09:13.835Z,311.56
2019-03-25T12:10:13.820Z,312.40
2019-03-25T12:11:13.802Z,311.45
2019-03-25T12:12:13.825Z,310.34
2019-03-25T12:13:13.791Z,312.16
2019-03-25T12:14:13.767Z,311.87
2019-03-25T12:15:13.774Z,310.10
2019-03-25T12:16:13.757Z,311.29
2019-03-25T12:17:13.765Z,310.90
2019-03-25T12:18:13.735Z,311.45
2019-03-25T12:19:13.739Z,311.05
2019-03-25T12:20:13.713Z,310.30
2019-03-25T12:21:13.698Z,309.48
2019-03-25T12:22:13.700Z,310.21
2019-03-25T12:23:13.676Z,309.56
2019-03-25T12:24:13.694Z,308.80
2019-03-25T12:25:13.640Z,310.14
2019-03-25T12:26:13.645Z,309.12
2019-03-25T12:27:13.674Z,310.09
2019-03-25T12:28:13.620Z,308.94